Kota Waris — S6RJ — position and weather

sailwx.info

Track history (hours):
 
Tides and Currents Weather Stations Pressure Air Temp Water Temp Dewpoint Dewpoint Depression Visibility Wind Speed Wind Dir Waves Ship Positions

Kota Waris

Last reported at 2016-May-05 08:31 UTC. Time now 2016-May-05 08:36 UTC.
Position N 01°17' E 103°47'.

Length 185 m; draft 9.2 m.

Type: Cargo ship. MMSI: 564482000.

Date/timePositionNaut miles runAvg speedWind from/ knotsBaromVisibWave heightAir tempDewpointWater temp
2016-May-05 08:31N 01°17' E 103°47'0 0.0
2016-May-05 07:31N 01°17' E 103°47'0 0.0
2016-May-05 06:22N 01°17' E 103°47'0 0.0
2016-May-05 05:31N 01°17' E 103°47'0 0.0
2016-May-05 04:28N 01°17' E 103°47'0 0.0
2016-May-05 02:32N 01°17' E 103°47'0 0.0
2016-May-05 01:33N 01°17' E 103°47'0 0.0
2016-May-05 00:33N 01°17' E 103°47'0 0.0
2016-May-04 23:33N 01°17' E 103°47'1 0.6
2016-May-04 22:33N 01°16' E 103°47'7 6.7
2016-May-04 21:33N 01°13' E 103°53'5 5.3
2016-May-04 20:33N 01°15' E 103°58'6 5.8
2016-May-04 19:31N 01°16' E 104°03'5 5.6
2016-May-04 18:32N 01°17' E 104°09'  
2016-May-01 08:26N 16°11' E 108°21'8 2.1
2016-May-01 04:26N 16°07' E 108°13'0 0.0
2016-May-01 03:33N 16°07' E 108°13'0 0.0
2016-May-01 02:32N 16°07' E 108°13'0 0.1
2016-May-01 01:33N 16°07' E 108°13'5 5.4
2016-May-01 00:32N 16°12' E 108°14'7 6.8
2016-Apr-30 23:33N 16°17' E 108°19'  
Track history (hours):
 
Tides and Currents Weather Stations Pressure Air Temp Water Temp Dewpoint Dewpoint Depression Visibility Wind Speed Wind Dir Waves Ship Positions

Kota Waris

Last reported at 2016-May-05 08:31 UTC. Time now 2016-May-05 08:36 UTC.
Position N 01°17' E 103°47'.

Length 185 m; draft 9.2 m.

Type: Cargo ship. MMSI: 564482000.

Date/timePositionNaut miles runAvg speedWind from/ knotsBaromVisibWave heightAir tempDewpointWater temp
2016-May-05 08:31N 01°17' E 103°47'0 0.0
2016-May-05 07:31N 01°17' E 103°47'0 0.0
2016-May-05 06:22N 01°17' E 103°47'0 0.0
2016-May-05 05:31N 01°17' E 103°47'0 0.0
2016-May-05 04:28N 01°17' E 103°47'0 0.0
2016-May-05 02:32N 01°17' E 103°47'0 0.0
2016-May-05 01:33N 01°17' E 103°47'0 0.0
2016-May-05 00:33N 01°17' E 103°47'0 0.0
2016-May-04 23:33N 01°17' E 103°47'1 0.6
2016-May-04 22:33N 01°16' E 103°47'7 6.7
2016-May-04 21:33N 01°13' E 103°53'5 5.3
2016-May-04 20:33N 01°15' E 103°58'6 5.8
2016-May-04 19:31N 01°16' E 104°03'5 5.6
2016-May-04 18:32N 01°17' E 104°09'  
2016-May-01 08:26N 16°11' E 108°21'8 2.1
2016-May-01 04:26N 16°07' E 108°13'0 0.0
2016-May-01 03:33N 16°07' E 108°13'0 0.0
2016-May-01 02:32N 16°07' E 108°13'0 0.1
2016-May-01 01:33N 16°07' E 108°13'5 5.4
2016-May-01 00:32N 16°12' E 108°14'7 6.8
2016-Apr-30 23:33N 16°17' E 108°19'  

Dump ship's entire track history